Time,TemperatureF,DewpointF,PressureIn,WindDirection,WindDirectionDegrees,WindSpeedMPH,WindSpeedGustMPH,Humidity,HourlyPrecipIn,Conditions,Clouds,dailyrainin,SoftwareType,DateUTC
2013-11-27 00:01:00,44.8,44.5,29.77,ENE,67,2.0,2.0,99,-99.99,,,0.62,wview2wurapid,2013-11-27 05:01:00,
2013-11-27 00:02:00,44.9,44.6,29.77,East,85,2.0,2.0,99,-99.99,,,0.62,wview2wurapid,2013-11-27 05:02:00,
2013-11-27 00:03:00,44.9,44.6,29.77,East,92,2.0,2.0,99,-99.99,,,0.63,wview2wurapid,2013-11-27 05:03:00,
2013-11-27 00:04:00,45.0,44.7,29.76,ENE,58,1.0,1.0,99,-99.99,,,0.63,wview2wurapid,2013-11-27 05:04:00,
2013-11-27 00:09:00,45.2,44.9,29.76,ENE,78,1.0,1.0,99,-99.99,,,0.04,wview2wurapid,2013-11-27 05:09:00,
2013-11-27 00:14:00,45.4,45.1,29.74,WNW,283,4.0,4.0,99,-99.99,,,0.06,wview2wurapid,2013-11-27 05:14:00,
2013-11-27 00:19:00,45.9,45.6,29.73,East,85,1.0,1.0,99,-99.99,,,0.09,wview2wurapid,2013-11-27 05:19:00,
2013-11-27 00:24:00,46.1,45.8,29.73,East,87,4.0,4.0,99,-99.99,,,0.11,wview2wurapid,2013-11-27 05:24:00,
2013-11-27 00:29:00,46.5,46.2,29.72,East,84,0.0,0.0,99,-99.99,,,0.13,wview2wurapid,2013-11-27 05:29:00,
2013-11-27 00:34:00,46.6,46.3,29.72,NNE,19,1.0,1.0,99,-99.99,,,0.14,wview2wurapid,2013-11-27 05:34:00,
2013-11-27 00:39:00,46.8,46.5,29.72,North,9,1.0,1.0,99,-99.99,,,0.17,wview2wurapid,2013-11-27 05:39:00,
2013-11-27 00:44:00,47.2,46.9,29.72,ESE,102,1.0,1.0,99,-99.99,,,0.21,wview2wurapid,2013-11-27 05:44:00,
2013-11-27 00:49:00,47.4,47.1,29.70,ESE,113,1.0,1.0,99,-99.99,,,0.26,wview2wurapid,2013-11-27 05:49:00,
2013-11-27 00:54:00,47.7,47.4,29.69,East,84,1.0,1.0,99,-99.99,,,0.28,wview2wurapid,2013-11-27 05:54:00,
2013-11-27 00:59:00,47.9,47.6,29.69,ESE,104,0.0,0.0,99,-99.99,,,0.32,wview2wurapid,2013-11-27 05:59:00,
2013-11-27 01:04:00,48.2,47.9,29.68,ENE,57,3.0,3.0,99,-99.99,,,0.34,wview2wurapid,2013-11-27 06:04:00,
2013-11-27 01:09:00,48.5,48.2,29.67,ENE,74,1.0,1.0,99,-99.99,,,0.37,wview2wurapid,2013-11-27 06:09:00,
2013-11-27 01:14:00,48.9,48.6,29.68,East,82,0.0,0.0,99,-99.99,,,0.41,wview2wurapid,2013-11-27 06:14:00,
2013-11-27 01:19:00,49.6,49.3,29.68,East,91,1.0,1.0,99,-99.99,,,0.45,wview2wurapid,2013-11-27 06:19:00,
2013-11-27 01:24:00,50.8,50.5,29.67,NE,38,4.0,4.0,99,-99.99,,,0.49,wview2wurapid,2013-11-27 06:24:00,
2013-11-27 01:29:00,51.9,51.6,29.66,East,92,1.0,1.0,99,-99.99,,,0.53,wview2wurapid,2013-11-27 06:29:00,
2013-11-27 01:34:00,52.7,52.4,29.66,ESE,103,3.0,3.0,99,-99.99,,,0.58,wview2wurapid,2013-11-27 06:34:00,
2013-11-27 01:39:00,53.1,52.8,29.66,SE,146,6.0,6.0,99,-99.99,,,0.62,wview2wurapid,2013-11-27 06:39:00,
2013-11-27 01:44:00,53.3,53.0,29.64,NE,34,1.0,1.0,99,-99.99,,,0.65,wview2wurapid,2013-11-27 06:44:00,
2013-11-27 01:49:00,53.5,53.2,29.63,ESE,110,2.0,2.0,99,-99.99,,,0.69,wview2wurapid,2013-11-27 06:49:00,
2013-11-27 01:54:00,53.6,53.3,29.63,ESE,110,3.0,3.0,99,-99.99,,,0.72,wview2wurapid,2013-11-27 06:54:00,
2013-11-27 01:59:00,53.8,53.5,29.62,ENE,58,3.0,3.0,99,-99.99,,,0.76,wview2wurapid,2013-11-27 06:59:00,
2013-11-27 02:04:00,53.9,53.6,29.61,East,89,3.0,3.0,99,-99.99,,,0.81,wview2wurapid,2013-11-27 07:04:00,
2013-11-27 02:09:00,54.1,53.8,29.60,East,84,2.0,2.0,99,-99.99,,,0.85,wview2wurapid,2013-11-27 07:09:00,
2013-11-27 02:14:00,54.3,54.0,29.59,East,86,3.0,3.0,99,-99.99,,,0.88,wview2wurapid,2013-11-27 07:14:00,
2013-11-27 02:19:00,54.5,54.2,29.58,East,95,1.0,1.0,99,-99.99,,,0.90,wview2wurapid,2013-11-27 07:19:00,
2013-11-27 02:24:00,54.8,54.5,29.57,NE,49,5.0,5.0,99,-99.99,,,0.96,wview2wurapid,2013-11-27 07:24:00,
2013-11-27 02:29:00,55.0,54.7,29.56,ESE,113,3.0,3.0,99,-99.99,,,0.99,wview2wurapid,2013-11-27 07:29:00,
2013-11-27 02:34:00,55.2,54.9,29.54,SE,129,2.0,2.0,99,-99.99,,,1.04,wview2wurapid,2013-11-27 07:34:00,
2013-11-27 02:39:00,55.5,55.2,29.54,WSW,245,7.0,7.0,99,-99.99,,,1.07,wview2wurapid,2013-11-27 07:39:00,
2013-11-27 02:44:00,56.0,55.7,29.54,ESE,105,3.0,3.0,99,-99.99,,,1.11,wview2wurapid,2013-11-27 07:44:00,
2013-11-27 02:49:00,56.3,56.0,29.52,East,90,6.0,6.0,99,-99.99,,,1.14,wview2wurapid,2013-11-27 07:49:00,
2013-11-27 02:54:00,56.4,56.1,29.52,SE,142,2.0,2.0,99,-99.99,,,1.18,wview2wurapid,2013-11-27 07:54:00,
2013-11-27 02:59:00,56.5,56.2,29.51,East,84,4.0,4.0,99,-99.99,,,1.21,wview2wurapid,2013-11-27 07:59:00,
2013-11-27 03:04:00,56.6,56.3,29.50,ESE,104,1.0,1.0,99,-99.99,,,1.25,wview2wurapid,2013-11-27 08:04:00,
2013-11-27 03:09:00,56.5,56.2,29.50,SE,142,1.0,1.0,99,-99.99,,,1.27,wview2wurapid,2013-11-27 08:09:00,
2013-11-27 03:14:00,56.6,56.3,29.50,ESE,122,2.0,2.0,99,-99.99,,,1.30,wview2wurapid,2013-11-27 08:14:00,
2013-11-27 03:19:00,56.7,56.4,29.49,ESE,110,1.0,1.0,99,-99.99,,,1.33,wview2wurapid,2013-11-27 08:19:00,
2013-11-27 03:24:00,57.1,56.8,29.49,NE,53,4.0,4.0,99,-99.99,,,1.37,wview2wurapid,2013-11-27 08:24:00,
2013-11-27 03:29:00,57.3,57.0,29.48,WSW,239,1.0,1.0,99,-99.99,,,1.39,wview2wurapid,2013-11-27 08:29:00,
2013-11-27 03:34:00,57.3,57.0,29.48,SE,138,0.0,0.0,99,-99.99,,,1.40,wview2wurapid,2013-11-27 08:34:00,
2013-11-27 03:39:00,57.5,57.2,29.47,East,82,0.0,0.0,99,-99.99,,,1.42,wview2wurapid,2013-11-27 08:39:00,
2013-11-27 03:44:00,57.6,57.3,29.47,East,93,3.0,3.0,99,-99.99,,,1.48,wview2wurapid,2013-11-27 08:44:00,
2013-11-27 03:49:00,57.8,57.5,29.45,East,79,3.0,3.0,99,-99.99,,,1.59,wview2wurapid,2013-11-27 08:49:00,
2013-11-27 03:54:00,58.1,57.8,29.44,East,87,2.0,2.0,99,-99.99,,,1.67,wview2wurapid,2013-11-27 08:54:00,
2013-11-27 03:59:00,58.3,58.0,29.44,SW,233,2.0,2.0,99,-99.99,,,1.69,wview2wurapid,2013-11-27 08:59:00,
2013-11-27 04:04:00,58.5,58.2,29.44,NE,56,2.0,2.0,99,-99.99,,,1.72,wview2wurapid,2013-11-27 09:04:00,
2013-11-27 04:09:00,58.6,58.3,29.43,East,89,1.0,1.0,99,-99.99,,,1.77,wview2wurapid,2013-11-27 09:09:00,
2013-11-27 04:14:00,58.6,58.3,29.43,ESE,120,2.0,2.0,99,-99.99,,,1.79,wview2wurapid,2013-11-27 09:14:00,
2013-11-27 04:19:00,58.8,58.5,29.42,SW,221,1.0,1.0,99,-99.99,,,1.82,wview2wurapid,2013-11-27 09:19:00,
2013-11-27 04:24:00,58.9,58.6,29.42,West,276,2.0,2.0,99,-99.99,,,1.83,wview2wurapid,2013-11-27 09:24:00,
2013-11-27 04:29:00,59.1,58.8,29.42,West,264,1.0,1.0,99,-99.99,,,1.84,wview2wurapid,2013-11-27 09:29:00,
2013-11-27 04:34:00,59.2,58.9,29.42,ESE,113,0.0,0.0,99,-99.99,,,1.85,wview2wurapid,2013-11-27 09:34:00,
2013-11-27 04:39:00,59.6,59.3,29.42,WSW,250,1.0,1.0,99,-99.99,,,1.86,wview2wurapid,2013-11-27 09:39:00,
2013-11-27 04:44:00,59.8,59.5,29.42,WNW,293,1.0,1.0,99,-99.99,,,1.87,wview2wurapid,2013-11-27 09:44:00,
2013-11-27 04:49:00,59.9,59.6,29.43,NW,311,0.0,0.0,99,-99.99,,,1.95,wview2wurapid,2013-11-27 09:49:00,
2013-11-27 04:54:00,60.0,59.7,29.43,North,352,0.0,0.0,99,-99.99,,,2.10,wview2wurapid,2013-11-27 09:54:00,
2013-11-27 04:59:00,59.8,59.5,29.43,North,352,0.0,0.0,99,-99.99,,,2.26,wview2wurapid,2013-11-27 09:59:00,
2013-11-27 05:04:00,59.5,59.2,29.43,North,352,0.0,0.0,99,-99.99,,,2.35,wview2wurapid,2013-11-27 10:04:00,
2013-11-27 05:09:00,59.3,59.0,29.42,North,354,0.0,0.0,99,-99.99,,,2.39,wview2wurapid,2013-11-27 10:09:00,
2013-11-27 05:14:00,59.2,58.9,29.42,North,354,0.0,0.0,99,-99.99,,,2.42,wview2wurapid,2013-11-27 10:14:00,
2013-11-27 05:19:00,59.0,58.7,29.42,North,354,0.0,0.0,99,-99.99,,,2.44,wview2wurapid,2013-11-27 10:19:00,
2013-11-27 05:24:00,58.8,58.5,29.42,North,354,0.0,0.0,99,-99.99,,,2.45,wview2wurapid,2013-11-27 10:24:00,
2013-11-27 05:29:00,58.8,58.5,29.41,North,354,0.0,0.0,99,-99.99,,,2.47,wview2wurapid,2013-11-27 10:29:00,
2013-11-27 05:34:00,58.8,58.5,29.41,North,354,0.0,0.0,99,-99.99,,,2.49,wview2wurapid,2013-11-27 10:34:00,
2013-11-27 05:39:00,58.7,58.4,29.41,North,354,0.0,0.0,99,-99.99,,,2.51,wview2wurapid,2013-11-27 10:39:00,
2013-11-27 05:44:00,58.7,58.4,29.40,North,353,0.0,0.0,99,-99.99,,,2.51,wview2wurapid,2013-11-27 10:44:00,
2013-11-27 05:49:00,58.7,58.4,29.40,North,354,0.0,0.0,99,-99.99,,,2.52,wview2wurapid,2013-11-27 10:49:00,
2013-11-27 05:54:00,58.7,58.4,29.40,North,352,0.0,0.0,99,-99.99,,,2.53,wview2wurapid,2013-11-27 10:54:00,
2013-11-27 05:59:00,58.6,58.3,29.40,North,352,0.0,0.0,99,-99.99,,,2.54,wview2wurapid,2013-11-27 10:59:00,
2013-11-27 06:04:00,58.6,58.3,29.40,North,354,0.0,0.0,99,-99.99,,,2.54,wview2wurapid,2013-11-27 11:04:00,
2013-11-27 06:09:00,58.6,58.3,29.40,SW,236,1.0,1.0,99,-99.99,,,2.55,wview2wurapid,2013-11-27 11:09:00,
2013-11-27 06:14:00,58.8,58.5,29.40,ESE,110,2.0,2.0,99,-99.99,,,2.56,wview2wurapid,2013-11-27 11:14:00,
2013-11-27 06:19:00,59.0,58.7,29.40,South,188,0.0,0.0,99,-99.99,,,2.56,wview2wurapid,2013-11-27 11:19:00,
2013-11-27 06:24:00,59.0,58.7,29.40,NE,55,0.0,0.0,99,-99.99,,,2.57,wview2wurapid,2013-11-27 11:24:00,
2013-11-27 06:29:00,59.1,58.8,29.40,ENE,57,0.0,0.0,99,-99.99,,,2.58,wview2wurapid,2013-11-27 11:29:00,
2013-11-27 06:34:00,59.2,58.9,29.40,ENE,70,0.0,0.0,99,-99.99,,,2.59,wview2wurapid,2013-11-27 11:34:00,
2013-11-27 06:39:00,59.2,58.9,29.40,ENE,70,0.0,0.0,99,-99.99,,,2.60,wview2wurapid,2013-11-27 11:39:00,
2013-11-27 06:44:00,59.2,58.9,29.40,ENE,70,0.0,0.0,99,-99.99,,,2.60,wview2wurapid,2013-11-27 11:44:00,
2013-11-27 06:49:00,59.1,58.8,29.40,ENE,69,0.0,0.0,99,-99.99,,,2.60,wview2wurapid,2013-11-27 11:49:00,
2013-11-27 06:54:00,59.1,58.8,29.40,ESE,115,1.0,1.0,99,-99.99,,,2.60,wview2wurapid,2013-11-27 11:54:00,
2013-11-27 06:59:00,59.0,58.7,29.40,SE,143,0.0,0.0,99,-99.99,,,2.60,wview2wurapid,2013-11-27 11:59:00,
2013-11-27 07:04:00,58.9,58.6,29.40,ESE,108,0.0,0.0,99,-99.99,,,2.61,wview2wurapid,2013-11-27 12:04:00,
2013-11-27 07:09:00,58.7,58.4,29.40,WNW,300,0.0,0.0,99,-99.99,,,2.61,wview2wurapid,2013-11-27 12:09:00,
2013-11-27 07:14:00,58.5,58.2,29.39,WSW,253,0.0,0.0,99,-99.99,,,2.62,wview2wurapid,2013-11-27 12:14:00,
2013-11-27 07:19:00,58.4,58.1,29.39,WSW,252,0.0,0.0,99,-99.99,,,2.63,wview2wurapid,2013-11-27 12:19:00,
2013-11-27 07:24:00,58.0,57.4,29.40,East,84,1.0,1.0,98,-99.99,,,2.64,wview2wurapid,2013-11-27 12:24:00,
2013-11-27 07:29:00,57.7,57.1,29.40,WSW,250,0.0,0.0,98,-99.99,,,2.64,wview2wurapid,2013-11-27 12:29:00,
2013-11-27 07:34:00,57.4,56.8,29.40,SE,127,0.0,0.0,98,-99.99,,,2.65,wview2wurapid,2013-11-27 12:34:00,
2013-11-27 07:39:00,57.0,56.4,29.41,NE,46,0.0,0.0,98,-99.99,,,2.65,wview2wurapid,2013-11-27 12:39:00,
2013-11-27 07:44:00,56.6,56.0,29.41,ESE,120,1.0,1.0,98,-99.99,,,2.65,wview2wurapid,2013-11-27 12:44:00,
2013-11-27 07:49:00,56.2,55.6,29.40,SSE,155,0.0,0.0,98,-99.99,,,2.66,wview2wurapid,2013-11-27 12:49:00,
2013-11-27 07:54:00,56.0,55.4,29.41,SE,142,0.0,0.0,98,-99.99,,,2.67,wview2wurapid,2013-11-27 12:54:00,
2013-11-27 07:59:00,55.8,55.2,29.40,SSW,205,0.0,0.0,98,-99.99,,,2.67,wview2wurapid,2013-11-27 12:59:00,
2013-11-27 08:04:00,55.7,55.1,29.40,NNW,347,0.0,0.0,98,-99.99,,,2.67,wview2wurapid,2013-11-27 13:04:00,
2013-11-27 08:09:00,54.6,53.8,29.40,WNW,287,1.0,1.0,97,-99.99,,,2.67,wview2wurapid,2013-11-27 13:09:00,
2013-11-27 08:14:00,53.5,52.7,29.40,SSE,158,0.0,0.0,97,-99.99,,,2.67,wview2wurapid,2013-11-27 13:14:00,
2013-11-27 08:19:00,52.8,52.0,29.41,West,280,1.0,1.0,97,-99.99,,,2.67,wview2wurapid,2013-11-27 13:19:00,
2013-11-27 08:24:00,52.0,51.2,29.41,WNW,290,1.0,1.0,97,-99.99,,,2.67,wview2wurapid,2013-11-27 13:24:00,
2013-11-27 08:29:00,51.5,50.7,29.42,WNW,290,0.0,0.0,97,-99.99,,,2.67,wview2wurapid,2013-11-27 13:29:00,
2013-11-27 08:34:00,51.1,50.3,29.43,NNW,327,0.0,0.0,97,-99.99,,,2.67,wview2wurapid,2013-11-27 13:34:00,
2013-11-27 08:39:00,50.7,49.9,29.43,WSW,241,0.0,0.0,97,-99.99,,,2.67,wview2wurapid,2013-11-27 13:39:00,
2013-11-27 08:44:00,50.2,49.4,29.44,West,274,0.0,0.0,97,-99.99,,,2.68,wview2wurapid,2013-11-27 13:44:00,
2013-11-27 08:49:00,49.7,48.9,29.45,West,267,0.0,0.0,97,-99.99,,,2.68,wview2wurapid,2013-11-27 13:49:00,
2013-11-27 08:54:00,49.2,48.4,29.45,WSW,244,0.0,0.0,97,-99.99,,,2.69,wview2wurapid,2013-11-27 13:54:00,
2013-11-27 08:59:00,48.7,47.9,29.44,WSW,245,0.0,0.0,97,-99.99,,,2.70,wview2wurapid,2013-11-27 13:59:00,
2013-11-27 09:04:00,48.5,47.7,29.43,WSW,244,0.0,0.0,97,-99.99,,,2.71,wview2wurapid,2013-11-27 14:04:00,
2013-11-27 09:09:00,48.2,47.7,29.41,NNW,333,0.0,0.0,98,-99.99,,,2.72,wview2wurapid,2013-11-27 14:09:00,
2013-11-27 09:14:00,48.1,47.6,29.40,SSE,158,0.0,0.0,98,-99.99,,,2.73,wview2wurapid,2013-11-27 14:14:00,
2013-11-27 09:19:00,47.7,47.2,29.41,SSE,158,0.0,0.0,98,-99.99,,,2.73,wview2wurapid,2013-11-27 14:19:00,
2013-11-27 09:24:00,47.6,47.1,29.41,East,84,0.0,0.0,98,-99.99,,,2.74,wview2wurapid,2013-11-27 14:24:00,
2013-11-27 09:29:00,47.5,47.0,29.42,NE,49,0.0,0.0,98,-99.99,,,2.75,wview2wurapid,2013-11-27 14:29:00,
2013-11-27 09:34:00,47.3,46.8,29.40,East,89,0.0,0.0,98,-99.99,,,2.75,wview2wurapid,2013-11-27 14:34:00,
2013-11-27 09:39:00,47.1,46.6,29.40,East,84,0.0,0.0,98,-99.99,,,2.77,wview2wurapid,2013-11-27 14:39:00,
2013-11-27 09:44:00,46.8,46.3,29.41,East,83,0.0,0.0,98,-99.99,,,2.77,wview2wurapid,2013-11-27 14:44:00,
2013-11-27 09:49:00,46.7,46.2,29.40,East,90,1.0,1.0,98,-99.99,,,2.78,wview2wurapid,2013-11-27 14:49:00,
2013-11-27 09:54:00,46.5,46.0,29.43,South,181,4.0,4.0,98,-99.99,,,2.79,wview2wurapid,2013-11-27 14:54:00,
2013-11-27 09:59:00,45.9,45.1,29.43,NNE,18,0.0,0.0,97,-99.99,,,2.80,wview2wurapid,2013-11-27 14:59:00,
2013-11-27 10:04:00,45.5,44.7,29.42,East,82,0.0,0.0,97,-99.99,,,2.81,wview2wurapid,2013-11-27 15:04:00,
2013-11-27 10:09:00,45.3,44.8,29.43,NE,39,1.0,1.0,98,-99.99,,,2.82,wview2wurapid,2013-11-27 15:09:00,
2013-11-27 10:14:00,45.1,44.3,29.44,WNW,303,3.0,3.0,97,-99.99,,,2.82,wview2wurapid,2013-11-27 15:14:00,
2013-11-27 10:19:00,44.7,43.9,29.42,NE,49,0.0,0.0,97,-99.99,,,2.82,wview2wurapid,2013-11-27 15:19:00,
2013-11-27 10:24:00,44.2,43.4,29.43,ESE,118,1.0,1.0,97,-99.99,,,2.83,wview2wurapid,2013-11-27 15:24:00,
2013-11-27 10:29:00,43.9,43.1,29.41,NE,51,0.0,0.0,97,-99.99,,,2.83,wview2wurapid,2013-11-27 15:29:00,
2013-11-27 10:34:00,43.6,42.8,29.42,North,359,0.0,0.0,97,-99.99,,,2.83,wview2wurapid,2013-11-27 15:34:00,
2013-11-27 10:39:00,43.7,43.2,29.43,NE,45,0.0,0.0,98,-99.99,,,2.83,wview2wurapid,2013-11-27 15:39:00,
2013-11-27 10:44:00,43.5,42.7,29.41,ENE,68,0.0,0.0,97,-99.99,,,2.83,wview2wurapid,2013-11-27 15:44:00,
2013-11-27 10:49:00,43.1,42.3,29.36,NNE,30,0.0,0.0,97,-99.99,,,2.84,wview2wurapid,2013-11-27 15:49:00,
2013-11-27 10:54:00,43.1,42.3,29.39,WSW,240,0.0,0.0,97,-99.99,,,2.84,wview2wurapid,2013-11-27 15:54:00,
2013-11-27 10:59:00,43.2,42.7,29.39,WSW,243,0.0,0.0,98,-99.99,,,2.84,wview2wurapid,2013-11-27 15:59:00,
2013-11-27 11:04:00,43.0,42.2,29.40,SE,132,0.0,0.0,97,-99.99,,,2.84,wview2wurapid,2013-11-27 16:04:00,
2013-11-27 11:09:00,43.1,42.6,29.41,East,86,2.0,2.0,98,-99.99,,,2.84,wview2wurapid,2013-11-27 16:09:00,
2013-11-27 11:14:00,42.9,42.1,29.39,NNE,33,1.0,1.0,97,-99.99,,,2.84,wview2wurapid,2013-11-27 16:14:00,
2013-11-27 11:19:00,42.7,41.9,29.39,NW,318,0.0,0.0,97,-99.99,,,2.84,wview2wurapid,2013-11-27 16:19:00,
2013-11-27 11:24:00,42.4,41.6,29.40,NNE,13,0.0,0.0,97,-99.99,,,2.84,wview2wurapid,2013-11-27 16:24:00,
2013-11-27 11:29:00,42.2,41.4,29.40,NNE,31,0.0,0.0,97,-99.99,,,2.84,wview2wurapid,2013-11-27 16:29:00,
2013-11-27 11:34:00,42.1,41.3,29.41,ENE,70,0.0,0.0,97,-99.99,,,2.84,wview2wurapid,2013-11-27 16:34:00,
2013-11-27 11:39:00,41.9,40.8,29.40,NE,45,0.0,0.0,96,-99.99,,,2.84,wview2wurapid,2013-11-27 16:39:00,
2013-11-27 11:44:00,41.8,40.7,29.41,NE,35,0.0,0.0,96,-99.99,,,2.84,wview2wurapid,2013-11-27 16:44:00,
2013-11-27 11:49:00,41.8,40.7,29.40,ESE,122,0.0,0.0,96,-99.99,,,2.84,wview2wurapid,2013-11-27 16:49:00,
2013-11-27 11:54:00,41.6,40.5,29.39,East,85,1.0,1.0,96,-99.99,,,2.84,wview2wurapid,2013-11-27 16:54:00,
2013-11-27 11:59:00,41.4,40.1,29.38,North,355,0.0,0.0,95,-99.99,,,2.84,wview2wurapid,2013-11-27 16:59:00,
2013-11-27 12:04:00,41.4,40.3,29.42,SE,132,0.0,0.0,96,-99.99,,,2.84,wview2wurapid,2013-11-27 17:04:00,
2013-11-27 12:09:00,41.4,40.1,29.41,NE,50,1.0,1.0,95,-99.99,,,2.84,wview2wurapid,2013-11-27 17:09:00,
2013-11-27 12:14:00,41.4,40.1,29.41,ENE,62,2.0,2.0,95,-99.99,,,2.84,wview2wurapid,2013-11-27 17:14:00,
2013-11-27 12:19:00,41.2,39.6,29.41,West,267,0.0,0.0,94,-99.99,,,2.84,wview2wurapid,2013-11-27 17:19:00,
2013-11-27 12:24:00,41.3,40.2,29.40,East,80,1.0,1.0,96,-99.99,,,2.84,wview2wurapid,2013-11-27 17:24:00,
2013-11-27 12:29:00,41.3,40.2,29.40,SE,135,1.0,1.0,96,-99.99,,,2.84,wview2wurapid,2013-11-27 17:29:00,
2013-11-27 12:34:00,41.2,39.9,29.41,West,260,1.0,1.0,95,-99.99,,,2.84,wview2wurapid,2013-11-27 17:34:00,
2013-11-27 12:39:00,41.1,39.8,29.41,NE,55,0.0,0.0,95,-99.99,,,2.84,wview2wurapid,2013-11-27 17:39:00,
2013-11-27 12:44:00,41.0,39.7,29.39,East,86,0.0,0.0,95,-99.99,,,2.84,wview2wurapid,2013-11-27 17:44:00,
2013-11-27 12:49:00,41.0,39.7,29.39,ENE,77,0.0,0.0,95,-99.99,,,2.84,wview2wurapid,2013-11-27 17:49:00,
2013-11-27 12:54:00,40.8,39.5,29.38,NNW,340,0.0,0.0,95,-99.99,,,2.84,wview2wurapid,2013-11-27 17:54:00,
2013-11-27 12:59:00,40.7,39.4,29.39,East,80,2.0,2.0,95,-99.99,,,2.84,wview2wurapid,2013-11-27 17:59:00,
2013-11-27 13:04:00,40.4,38.8,29.39,NNE,27,0.0,0.0,94,-99.99,,,2.84,wview2wurapid,2013-11-27 18:04:00,
2013-11-27 13:09:00,40.3,38.7,29.39,ESE,114,0.0,0.0,94,-99.99,,,2.84,wview2wurapid,2013-11-27 18:09:00,
2013-11-27 13:14:00,40.3,39.0,29.39,WSW,241,0.0,0.0,95,-99.99,,,2.84,wview2wurapid,2013-11-27 18:14:00,
2013-11-27 13:19:00,40.2,38.6,29.39,North,4,0.0,0.0,94,-99.99,,,2.84,wview2wurapid,2013-11-27 18:19:00,
2013-11-27 13:24:00,40.1,38.5,29.39,NNE,33,0.0,0.0,94,-99.99,,,2.84,wview2wurapid,2013-11-27 18:24:00,
2013-11-27 13:29:00,40.0,38.7,29.40,NE,34,0.0,0.0,95,-99.99,,,2.84,wview2wurapid,2013-11-27 18:29:00,
2013-11-27 13:34:00,40.0,38.7,29.43,NNE,33,0.0,0.0,95,-99.99,,,2.85,wview2wurapid,2013-11-27 18:34:00,
2013-11-27 13:39:00,39.9,38.6,29.43,East,87,1.0,1.0,95,-99.99,,,2.85,wview2wurapid,2013-11-27 18:39:00,
2013-11-27 13:44:00,39.6,38.0,29.42,NNE,25,1.0,1.0,94,-99.99,,,2.85,wview2wurapid,2013-11-27 18:44:00,
2013-11-27 13:49:00,39.5,37.9,29.41,East,96,0.0,0.0,94,-99.99,,,2.85,wview2wurapid,2013-11-27 18:49:00,
2013-11-27 13:54:00,39.2,37.6,29.40,NNE,26,0.0,0.0,94,-99.99,,,2.86,wview2wurapid,2013-11-27 18:54:00,
2013-11-27 13:56:00,39.2,37.9,29.40,NNE,26,0.0,0.0,95,-99.99,,,2.86,wview2wurapid,2013-11-27 18:56:00,
2013-11-27 14:01:00,38.9,37.6,29.39,SE,144,1.0,1.0,95,-99.99,,,2.86,wview2wurapid,2013-11-27 19:01:00,
2013-11-27 14:06:00,38.9,37.6,29.38,NNE,30,0.0,0.0,95,-99.99,,,2.86,wview2wurapid,2013-11-27 19:06:00,
2013-11-27 14:11:00,38.8,37.5,29.39,North,358,0.0,0.0,95,-99.99,,,2.86,wview2wurapid,2013-11-27 19:11:00,
2013-11-27 14:16:00,38.7,37.7,29.39,East,90,0.0,0.0,96,-99.99,,,2.86,wview2wurapid,2013-11-27 19:16:00,
2013-11-27 14:21:00,38.7,37.7,29.38,NW,319,0.0,0.0,96,-99.99,,,2.86,wview2wurapid,2013-11-27 19:21:00,
2013-11-27 14:26:00,38.7,37.7,29.38,SE,131,0.0,0.0,96,-99.99,,,2.86,wview2wurapid,2013-11-27 19:26:00,
2013-11-27 14:31:00,38.7,37.7,29.38,NNW,345,0.0,0.0,96,-99.99,,,2.87,wview2wurapid,2013-11-27 19:31:00,
2013-11-27 14:36:00,38.7,37.7,29.39,NE,51,0.0,0.0,96,-99.99,,,2.87,wview2wurapid,2013-11-27 19:36:00,
2013-11-27 14:41:00,38.7,37.7,29.39,NW,315,1.0,1.0,96,-99.99,,,2.87,wview2wurapid,2013-11-27 19:41:00,
2013-11-27 14:46:00,38.6,37.3,29.37,East,90,0.0,0.0,95,-99.99,,,2.87,wview2wurapid,2013-11-27 19:46:00,
2013-11-27 14:51:00,38.5,37.2,29.39,WNW,302,0.0,0.0,95,-99.99,,,2.87,wview2wurapid,2013-11-27 19:51:00,
2013-11-27 14:56:00,38.5,37.2,29.39,North,1,1.0,1.0,95,-99.99,,,2.87,wview2wurapid,2013-11-27 19:56:00,
2013-11-27 15:01:00,38.4,37.1,29.39,NW,310,0.0,0.0,95,-99.99,,,2.87,wview2wurapid,2013-11-27 20:01:00,
2013-11-27 15:06:00,38.3,37.0,29.40,NW,326,0.0,0.0,95,-99.99,,,2.87,wview2wurapid,2013-11-27 20:06:00,
2013-11-27 15:11:00,38.3,37.0,29.41,NE,37,0.0,0.0,95,-99.99,,,2.87,wview2wurapid,2013-11-27 20:11:00,
2013-11-27 15:16:00,38.2,36.6,29.42,SSE,147,0.0,0.0,94,-99.99,,,2.87,wview2wurapid,2013-11-27 20:16:00,
2013-11-27 15:21:00,38.2,36.6,29.42,ESE,110,0.0,0.0,94,-99.99,,,2.87,wview2wurapid,2013-11-27 20:21:00,
2013-11-27 15:26:00,38.2,36.6,29.42,NNE,20,0.0,0.0,94,-99.99,,,2.88,wview2wurapid,2013-11-27 20:26:00,
2013-11-27 15:31:00,38.1,36.5,29.40,SE,129,0.0,0.0,94,-99.99,,,2.88,wview2wurapid,2013-11-27 20:31:00,
2013-11-27 15:36:00,38.0,36.7,29.39,East,98,1.0,1.0,95,-99.99,,,2.88,wview2wurapid,2013-11-27 20:36:00,
2013-11-27 15:41:00,37.9,36.6,29.40,East,82,0.0,0.0,95,-99.99,,,2.89,wview2wurapid,2013-11-27 20:41:00,
2013-11-27 15:46:00,37.8,36.2,29.40,NNE,31,0.0,0.0,94,-99.99,,,2.89,wview2wurapid,2013-11-27 20:46:00,
2013-11-27 15:51:00,37.8,36.5,29.38,ENE,77,0.0,0.0,95,-99.99,,,2.89,wview2wurapid,2013-11-27 20:51:00,
2013-11-27 15:56:00,37.7,36.4,29.39,NE,43,0.0,0.0,95,-99.99,,,2.89,wview2wurapid,2013-11-27 20:56:00,
2013-11-27 16:01:00,37.6,36.3,29.39,NW,307,0.0,0.0,95,-99.99,,,2.89,wview2wurapid,2013-11-27 21:01:00,
2013-11-27 16:06:00,37.5,36.2,29.39,North,1,0.0,0.0,95,-99.99,,,2.89,wview2wurapid,2013-11-27 21:06:00,
2013-11-27 16:11:00,37.4,36.1,29.39,ENE,68,0.0,0.0,95,-99.99,,,2.90,wview2wurapid,2013-11-27 21:11:00,
2013-11-27 16:16:00,37.3,36.3,29.39,North,5,0.0,0.0,96,-99.99,,,2.90,wview2wurapid,2013-11-27 21:16:00,
2013-11-27 16:21:00,37.1,35.8,29.38,NNW,335,2.0,2.0,95,-99.99,,,2.90,wview2wurapid,2013-11-27 21:21:00,
2013-11-27 16:26:00,37.1,35.8,29.35,NW,323,0.0,0.0,95,-99.99,,,2.91,wview2wurapid,2013-11-27 21:26:00,
2013-11-27 16:31:00,36.9,35.6,29.36,SW,217,0.0,0.0,95,-99.99,,,2.92,wview2wurapid,2013-11-27 21:31:00,
2013-11-27 16:36:00,36.9,35.6,29.38,NNE,30,0.0,0.0,95,-99.99,,,2.92,wview2wurapid,2013-11-27 21:36:00,
2013-11-27 16:41:00,36.9,35.6,29.40,North,8,1.0,1.0,95,-99.99,,,2.92,wview2wurapid,2013-11-27 21:41:00,
2013-11-27 16:46:00,36.9,35.6,29.41,NE,34,0.0,0.0,95,-99.99,,,2.92,wview2wurapid,2013-11-27 21:46:00,
2013-11-27 16:51:00,36.8,35.5,29.42,NW,307,1.0,1.0,95,-99.99,,,2.92,wview2wurapid,2013-11-27 21:51:00,
2013-11-27 16:56:00,36.8,35.5,29.41,NE,36,1.0,1.0,95,-99.99,,,2.92,wview2wurapid,2013-11-27 21:56:00,
2013-11-27 17:01:00,36.7,35.4,29.41,ESE,113,3.0,3.0,95,-99.99,,,2.92,wview2wurapid,2013-11-27 22:01:00,
2013-11-27 17:06:00,36.7,35.4,29.43,SW,214,0.0,0.0,95,-99.99,,,2.92,wview2wurapid,2013-11-27 22:06:00,
2013-11-27 17:11:00,36.7,35.1,29.44,East,91,0.0,0.0,94,-99.99,,,2.92,wview2wurapid,2013-11-27 22:11:00,
2013-11-27 17:16:00,36.6,35.0,29.43,NW,321,0.0,0.0,94,-99.99,,,2.92,wview2wurapid,2013-11-27 22:16:00,
2013-11-27 17:21:00,36.5,35.2,29.44,North,356,2.0,2.0,95,-99.99,,,2.93,wview2wurapid,2013-11-27 22:21:00,
2013-11-27 17:26:00,36.3,35.0,29.44,NW,326,3.0,3.0,95,-99.99,,,2.93,wview2wurapid,2013-11-27 22:26:00,
2013-11-27 17:31:00,36.1,34.8,29.44,West,266,2.0,2.0,95,-99.99,,,2.94,wview2wurapid,2013-11-27 22:31:00,
2013-11-27 17:36:00,36.0,34.7,29.45,NNW,340,2.0,2.0,95,-99.99,,,2.94,wview2wurapid,2013-11-27 22:36:00,
2013-11-27 17:41:00,35.8,34.5,29.47,SSE,158,1.0,1.0,95,-99.99,,,2.94,wview2wurapid,2013-11-27 22:41:00,
2013-11-27 17:46:00,35.7,34.4,29.48,West,281,1.0,1.0,95,-99.99,,,2.94,wview2wurapid,2013-11-27 22:46:00,
2013-11-27 17:51:00,35.6,34.3,29.49,North,4,2.0,2.0,95,-99.99,,,2.94,wview2wurapid,2013-11-27 22:51:00,
2013-11-27 17:56:00,35.5,34.2,29.49,North,11,1.0,1.0,95,-99.99,,,2.94,wview2wurapid,2013-11-27 22:56:00,
2013-11-27 18:01:00,35.4,34.1,29.50,SSW,197,0.0,0.0,95,-99.99,,,2.94,wview2wurapid,2013-11-27 23:01:00,
2013-11-27 18:06:00,35.3,34.0,29.50,NNW,332,4.0,4.0,95,-99.99,,,2.95,wview2wurapid,2013-11-27 23:06:00,
2013-11-27 18:11:00,35.1,33.8,29.50,NE,42,2.0,2.0,95,-99.99,,,2.95,wview2wurapid,2013-11-27 23:11:00,
2013-11-27 18:16:00,35.0,33.7,29.50,WSW,257,0.0,0.0,95,-99.99,,,2.95,wview2wurapid,2013-11-27 23:16:00,
2013-11-27 18:21:00,34.9,33.9,29.50,ENE,78,0.0,0.0,96,-99.99,,,2.95,wview2wurapid,2013-11-27 23:21:00,
2013-11-27 18:26:00,34.9,33.9,29.50,West,269,0.0,0.0,96,-99.99,,,2.95,wview2wurapid,2013-11-27 23:26:00,
2013-11-27 18:31:00,35.0,34.0,29.50,East,94,0.0,0.0,96,-99.99,,,2.95,wview2wurapid,2013-11-27 23:31:00,
2013-11-27 18:36:00,35.0,34.0,29.51,West,264,1.0,1.0,96,-99.99,,,2.95,wview2wurapid,2013-11-27 23:36:00,
2013-11-27 18:41:00,35.1,34.1,29.51,East,85,0.0,0.0,96,-99.99,,,2.95,wview2wurapid,2013-11-27 23:41:00,
2013-11-27 18:46:00,35.1,34.1,29.52,NW,308,0.0,0.0,96,-99.99,,,2.95,wview2wurapid,2013-11-27 23:46:00,
2013-11-27 18:51:00,35.2,33.9,29.53,ESE,113,1.0,1.0,95,-99.99,,,2.95,wview2wurapid,2013-11-27 23:51:00,
2013-11-27 18:56:00,35.2,33.9,29.53,ESE,115,0.0,0.0,95,-99.99,,,2.95,wview2wurapid,2013-11-27 23:56:00,
2013-11-27 19:01:00,35.2,33.9,29.53,WSW,242,2.0,2.0,95,-99.99,,,2.95,wview2wurapid,2013-11-28 00:01:00,
2013-11-27 19:06:00,35.3,34.0,29.54,West,270,0.0,0.0,95,-99.99,,,2.95,wview2wurapid,2013-11-28 00:06:00,
2013-11-27 19:11:00,35.3,33.7,29.54,ENE,78,0.0,0.0,94,-99.99,,,2.95,wview2wurapid,2013-11-28 00:11:00,
2013-11-27 19:16:00,35.4,33.8,29.55,WSW,256,0.0,0.0,94,-99.99,,,2.95,wview2wurapid,2013-11-28 00:16:00,
2013-11-27 19:21:00,35.5,33.7,29.54,East,97,1.0,1.0,93,-99.99,,,2.95,wview2wurapid,2013-11-28 00:21:00,
2013-11-27 19:26:00,35.5,33.9,29.54,East,94,0.0,0.0,94,-99.99,,,2.95,wview2wurapid,2013-11-28 00:26:00,
2013-11-27 19:31:00,35.5,33.7,29.54,NE,40,1.0,1.0,93,-99.99,,,2.95,wview2wurapid,2013-11-28 00:31:00,
2013-11-27 19:36:00,35.5,33.4,29.55,WSW,240,0.0,0.0,92,-99.99,,,2.95,wview2wurapid,2013-11-28 00:36:00,
2013-11-27 19:41:00,35.6,33.2,29.54,NE,38,1.0,1.0,91,-99.99,,,2.95,wview2wurapid,2013-11-28 00:41:00,
2013-11-27 19:46:00,35.6,33.5,29.55,ESE,103,0.0,0.0,92,-99.99,,,2.95,wview2wurapid,2013-11-28 00:46:00,
2013-11-27 19:51:00,35.7,33.3,29.55,ESE,121,0.0,0.0,91,-99.99,,,2.95,wview2wurapid,2013-11-28 00:51:00,
2013-11-27 19:56:00,35.7,33.1,29.56,WNW,301,1.0,1.0,90,-99.99,,,2.95,wview2wurapid,2013-11-28 00:56:00,
2013-11-27 20:01:00,35.7,33.1,29.56,East,99,5.0,5.0,90,-99.99,,,2.95,wview2wurapid,2013-11-28 01:01:00,
2013-11-27 20:06:00,35.7,33.1,29.56,WNW,295,0.0,0.0,90,-99.99,,,2.95,wview2wurapid,2013-11-28 01:06:00,
2013-11-27 20:11:00,35.7,32.8,29.57,South,179,0.0,0.0,89,-99.99,,,2.95,wview2wurapid,2013-11-28 01:11:00,
2013-11-27 20:16:00,35.7,32.2,29.57,NW,319,0.0,0.0,87,-99.99,,,2.95,wview2wurapid,2013-11-28 01:16:00,
2013-11-27 20:21:00,35.6,31.5,29.58,ENE,62,1.0,1.0,85,-99.99,,,2.95,wview2wurapid,2013-11-28 01:21:00,
2013-11-27 20:26:00,35.5,31.4,29.59,North,355,0.0,0.0,85,-99.99,,,2.95,wview2wurapid,2013-11-28 01:26:00,
2013-11-27 20:31:00,35.4,31.6,29.59,NE,35,0.0,0.0,86,-99.99,,,2.95,wview2wurapid,2013-11-28 01:31:00,
2013-11-27 20:36:00,35.4,31.3,29.59,SE,131,1.0,1.0,85,-99.99,,,2.95,wview2wurapid,2013-11-28 01:36:00,
2013-11-27 20:41:00,35.3,31.5,29.59,East,89,1.0,1.0,86,-99.99,,,2.95,wview2wurapid,2013-11-28 01:41:00,
2013-11-27 20:46:00,35.2,31.4,29.60,East,86,1.0,1.0,86,-99.99,,,2.95,wview2wurapid,2013-11-28 01:46:00,
2013-11-27 20:51:00,35.1,31.1,29.60,ESE,114,2.0,2.0,85,-99.99,,,2.95,wview2wurapid,2013-11-28 01:51:00,
2013-11-27 20:56:00,34.9,29.7,29.60,ENE,59,10.0,10.0,81,-99.99,,,2.95,wview2wurapid,2013-11-28 01:56:00,
2013-11-27 21:01:00,34.6,29.4,29.60,East,90,0.0,0.0,81,-99.99,,,2.95,wview2wurapid,2013-11-28 02:01:00,
2013-11-27 21:06:00,34.5,29.9,29.60,East,89,1.0,1.0,83,-99.99,,,2.95,wview2wurapid,2013-11-28 02:06:00,
2013-11-27 21:11:00,34.4,29.8,29.60,ESE,121,1.0,1.0,83,-99.99,,,2.95,wview2wurapid,2013-11-28 02:11:00,
2013-11-27 21:16:00,34.2,29.3,29.61,East,92,1.0,1.0,82,-99.99,,,2.95,wview2wurapid,2013-11-28 02:16:00,
2013-11-27 21:21:00,34.1,29.2,29.61,NE,48,2.0,2.0,82,-99.99,,,2.95,wview2wurapid,2013-11-28 02:21:00,
2013-11-27 21:26:00,34.0,28.8,29.63,East,94,1.0,1.0,81,-99.99,,,2.95,wview2wurapid,2013-11-28 02:26:00,
2013-11-27 21:31:00,33.9,28.4,29.63,ESE,121,2.0,2.0,80,-99.99,,,2.95,wview2wurapid,2013-11-28 02:31:00,
2013-11-27 21:36:00,33.9,28.4,29.63,WNW,303,2.0,2.0,80,-99.99,,,2.95,wview2wurapid,2013-11-28 02:36:00,
2013-11-27 21:41:00,33.8,28.3,29.64,North,354,2.0,2.0,80,-99.99,,,2.95,wview2wurapid,2013-11-28 02:41:00,
2013-11-27 21:46:00,33.7,28.2,29.64,ESE,113,1.0,1.0,80,-99.99,,,2.95,wview2wurapid,2013-11-28 02:46:00,
2013-11-27 21:51:00,33.6,28.1,29.64,WSW,242,1.0,1.0,80,-99.99,,,2.95,wview2wurapid,2013-11-28 02:51:00,
2013-11-27 21:56:00,33.5,27.7,29.65,South,186,2.0,2.0,79,-99.99,,,2.95,wview2wurapid,2013-11-28 02:56:00,
2013-11-27 22:01:00,33.4,27.9,29.65,West,266,1.0,1.0,80,-99.99,,,2.95,wview2wurapid,2013-11-28 03:01:00,
2013-11-27 22:06:00,33.3,27.2,29.66,NNE,14,1.0,1.0,78,-99.99,,,2.95,wview2wurapid,2013-11-28 03:06:00,
2013-11-27 22:11:00,33.3,27.2,29.66,NNE,25,0.0,0.0,78,-99.99,,,2.95,wview2wurapid,2013-11-28 03:11:00,
2013-11-27 22:16:00,33.2,27.1,29.67,East,100,1.0,1.0,78,-99.99,,,2.95,wview2wurapid,2013-11-28 03:16:00,
2013-11-27 22:21:00,33.1,26.7,29.67,South,190,1.0,1.0,77,-99.99,,,2.95,wview2wurapid,2013-11-28 03:21:00,
2013-11-27 22:26:00,33.1,26.4,29.67,NNW,330,2.0,2.0,76,-99.99,,,2.95,wview2wurapid,2013-11-28 03:26:00,
2013-11-27 22:31:00,33.0,26.3,29.68,SE,129,0.0,0.0,76,-99.99,,,2.95,wview2wurapid,2013-11-28 03:31:00,
2013-11-27 22:36:00,32.9,26.2,29.68,ENE,65,0.0,0.0,76,-99.99,,,2.95,wview2wurapid,2013-11-28 03:36:00,
2013-11-27 22:41:00,32.9,26.5,29.69,East,89,2.0,2.0,77,-99.99,,,2.95,wview2wurapid,2013-11-28 03:41:00,
2013-11-27 22:46:00,33.0,26.3,29.70,WNW,286,1.0,1.0,76,-99.99,,,2.95,wview2wurapid,2013-11-28 03:46:00,
2013-11-27 22:51:00,33.1,26.1,29.70,East,82,0.0,0.0,75,-99.99,,,2.95,wview2wurapid,2013-11-28 03:51:00,
2013-11-27 22:56:00,33.1,26.1,29.70,West,281,0.0,0.0,75,-99.99,,,2.95,wview2wurapid,2013-11-28 03:56:00,
2013-11-27 23:01:00,33.0,25.3,29.71,SSE,148,0.0,0.0,73,-99.99,,,2.95,wview2wurapid,2013-11-28 04:01:00,
2013-11-27 23:06:00,33.1,26.1,29.71,ENE,72,1.0,1.0,75,-99.99,,,2.95,wview2wurapid,2013-11-28 04:06:00,
2013-11-27 23:11:00,33.1,25.7,29.71,North,8,0.0,0.0,74,-99.99,,,2.95,wview2wurapid,2013-11-28 04:11:00,
2013-11-27 23:16:00,33.1,25.4,29.72,WNW,302,4.0,4.0,73,-99.99,,,2.95,wview2wurapid,2013-11-28 04:16:00,
2013-11-27 23:21:00,33.2,25.8,29.72,ENE,62,0.0,0.0,74,-99.99,,,2.95,wview2wurapid,2013-11-28 04:21:00,
2013-11-27 23:26:00,33.1,25.7,29.73,NE,51,1.0,1.0,74,-99.99,,,2.95,wview2wurapid,2013-11-28 04:26:00,
2013-11-27 23:31:00,33.1,25.4,29.73,SSE,159,1.0,1.0,73,-99.99,,,2.95,wview2wurapid,2013-11-28 04:31:00,
2013-11-27 23:36:00,32.9,24.5,29.74,East,82,0.0,0.0,71,-99.99,,,2.95,wview2wurapid,2013-11-28 04:36:00,
2013-11-27 23:41:00,32.7,24.4,29.74,NNE,23,0.0,0.0,71,-99.99,,,2.95,wview2wurapid,2013-11-28 04:41:00,
2013-11-27 23:46:00,32.3,24.0,29.74,NE,45,2.0,2.0,71,-99.99,,,2.95,wview2wurapid,2013-11-28 04:46:00,
2013-11-27 23:51:00,32.1,24.8,29.75,ESE,116,0.0,0.0,74,-99.99,,,2.95,wview2wurapid,2013-11-28 04:51:00,
2013-11-27 23:56:00,32.0,24.0,29.75,NE,39,1.0,1.0,72,-99.99,,,2.95,wview2wurapid,2013-11-28 04:56:00,